Check out our new BloomSky Weather System.

Active alerts

Houston, TX
  Details for Houston, TX River Flood Warning  +1 additional alert
Fort Bend, TX
  Details for Fort Bend, TX River Flood Warning  +1 additional alert


Thunder radar  blitzortung!


Rain radar more information rain snow radar


Visit our other weather sites:

Template documentation
and downloads

And another site



Weather Underground History page Text

Daily Summary for January 26, 2018 Units:  English    Metric   Both
« Previous Day
Next Day »
Daily Weekly Monthly Yearly Custom
  High: Low: Average:
Temperature: TemperatureF °F 45.7 °F 58.2 °F
Dew Point: DewpointF °F 39.9 °F 53.5 °F
Humidity: Humidity % 73 % 84 %
Wind Speed: WindSpeedMPH mph 0.0 mph 2.3 mph
Wind Gust: WindSpeedGustMPH mph - -
Wind:- - SE
Pressure: PressureIn in 30.16 in -
Precipitation: 0.00 in    
Historical Graphs
 
 
Tabular Data for January 26, 2018
Time Temperature Dew Point Pressure Wind Wind Speed Wind Gust Humidity Rainfall Rate (Hourly)
TemperatureF °F DewpointF °F PressureIn in Calm     Humidity % HourlyPrecipIn in
00:02 46.0 °F 39.9 °F 30.35 in Calm     79 % 0.00 in
00:07 46.0 °F 40.3 °F 30.34 in Calm   1.0 mph 80 % 0.00 in
00:12 46.2 °F 41.0 °F 30.34 in SE 1.0 mph 1.0 mph 82 % 0.00 in
00:17 46.6 °F 41.4 °F 30.34 in Calm   1.0 mph 82 % 0.00 in
00:22 46.8 °F 41.5 °F 30.34 in Calm   1.0 mph 82 % 0.00 in
00:27 46.8 °F 41.5 °F 30.34 in Calm   1.0 mph 82 % 0.00 in
00:32 46.8 °F 41.5 °F 30.33 in Calm   1.0 mph 82 % 0.00 in
00:37 46.8 °F 41.5 °F 30.34 in Calm   1.0 mph 82 % 0.00 in
00:42 46.8 °F 41.5 °F 30.34 in Calm   1.0 mph 82 % 0.00 in
00:47 46.8 °F 41.5 °F 30.34 in NNW 1.0 mph 1.0 mph 82 % 0.00 in
00:52 46.8 °F 41.5 °F 30.34 in Calm   1.0 mph 82 % 0.00 in
00:57 46.8 °F 41.5 °F 30.33 in Calm   1.0 mph 82 % 0.00 in
01:02 46.8 °F 41.5 °F 30.33 in Calm   1.0 mph 82 % 0.00 in
01:07 46.8 °F 41.5 °F 30.33 in Calm   1.0 mph 82 % 0.00 in
01:12 46.8 °F 41.5 °F 30.33 in Calm   1.0 mph 82 % 0.00 in
01:17 46.9 °F 41.7 °F 30.33 in Calm   1.0 mph 82 % 0.00 in
01:22 46.9 °F 41.7 °F 30.33 in Calm   1.0 mph 82 % 0.00 in
01:27 46.9 °F 41.7 °F 30.33 in NNW 1.0 mph 1.0 mph 82 % 0.00 in
01:32 46.8 °F 41.5 °F 30.33 in Calm   1.0 mph 82 % 0.00 in
01:37 46.8 °F 41.5 °F 30.32 in Calm   1.0 mph 82 % 0.00 in
01:42 46.6 °F 41.4 °F 30.32 in Calm   1.0 mph 82 % 0.00 in
01:47 46.2 °F 41.0 °F 30.32 in Calm   1.0 mph 82 % 0.00 in
01:52 46.0 °F 41.2 °F 30.31 in Calm   1.0 mph 83 % 0.00 in
01:57 46.0 °F 41.5 °F 30.30 in Calm   1.0 mph 84 % 0.00 in
02:02 46.0 °F 41.5 °F 30.30 in Calm   1.0 mph 84 % 0.00 in
02:07 46.2 °F 41.7 °F 30.30 in Calm   2.0 mph 84 % 0.00 in
02:12 46.2 °F 41.7 °F 30.30 in Calm   2.0 mph 84 % 0.00 in
02:17 46.2 °F 41.7 °F 30.29 in Calm   2.0 mph 84 % 0.00 in
02:22 46.2 °F 41.7 °F 30.29 in Calm   2.0 mph 84 % 0.00 in
02:27 46.2 °F 41.7 °F 30.29 in Calm   2.0 mph 84 % 0.00 in
02:32 46.0 °F 41.7 °F 30.29 in East 1.0 mph 1.0 mph 85 % 0.00 in
02:37 46.0 °F 41.7 °F 30.29 in Calm   2.0 mph 85 % 0.00 in
02:42 46.0 °F 41.7 °F 30.29 in Calm   2.0 mph 85 % 0.00 in
02:47 46.0 °F 42.1 °F 30.29 in Calm   2.0 mph 86 % 0.00 in
02:52 45.9 °F 41.9 °F 30.29 in Calm   1.0 mph 86 % 0.00 in
02:57 45.9 °F 41.9 °F 30.29 in Calm   1.0 mph 86 % 0.00 in
03:02 45.7 °F 41.7 °F 30.28 in Calm   1.0 mph 86 % 0.00 in
03:07 45.7 °F 42.1 °F 30.28 in Calm   1.0 mph 87 % 0.00 in
03:12 45.7 °F 42.1 °F 30.28 in Calm   1.0 mph 87 % 0.00 in
03:17 45.9 °F 42.3 °F 30.28 in Calm   1.0 mph 87 % 0.00 in
03:22 45.9 °F 42.4 °F 30.28 in Calm   1.0 mph 88 % 0.00 in
03:27 46.0 °F 42.6 °F 30.28 in Calm   1.0 mph 88 % 0.00 in
03:32 46.2 °F 42.8 °F 30.28 in Calm   1.0 mph 88 % 0.00 in
03:37 46.6 °F 43.5 °F 30.28 in Calm   1.0 mph 89 % 0.00 in
03:42 46.8 °F 43.7 °F 30.28 in Calm   1.0 mph 89 % 0.00 in
03:47 46.9 °F 43.9 °F 30.28 in NE 1.0 mph 2.0 mph 89 % 0.00 in
03:52 47.1 °F 44.1 °F 30.28 in Calm   2.0 mph 89 % 0.00 in
03:57 47.3 °F 44.2 °F 30.27 in Calm   2.0 mph 89 % 0.00 in
04:02 47.7 °F 44.6 °F 30.27 in Calm   1.0 mph 89 % 0.00 in
04:07 47.8 °F 44.8 °F 30.27 in SE 1.0 mph 2.0 mph 89 % 0.00 in
04:12 47.8 °F 44.8 °F 30.27 in Calm   2.0 mph 89 % 0.00 in
04:17 48.0 °F 45.0 °F 30.26 in SE 1.0 mph 3.0 mph 89 % 0.00 in
04:23 48.0 °F 45.0 °F 30.26 in Calm   3.0 mph 89 % 0.00 in
04:28 48.4 °F 45.3 °F 30.26 in Calm   3.0 mph 89 % 0.00 in
04:32 48.4 °F 45.3 °F 30.25 in Calm   4.0 mph 89 % 0.00 in
04:38 48.6 °F 45.7 °F 30.26 in SE 1.0 mph 4.0 mph 90 % 0.00 in
04:40 48.6 °F 45.7 °F 30.25 in Calm   4.0 mph 90 % 0.00 in
04:45 48.7 °F 45.9 °F 30.25 in Calm   4.0 mph 90 % 0.00 in
04:50 48.9 °F 46.0 °F 30.26 in Calm   3.0 mph 90 % 0.00 in
04:55 49.1 °F 46.2 °F 30.26 in Calm   3.0 mph 90 % 0.00 in
05:00 49.3 °F 46.4 °F 30.26 in Calm   2.0 mph 90 % 0.00 in
05:05 49.3 °F 46.4 °F 30.26 in East 2.0 mph 2.0 mph 90 % 0.00 in
05:10 49.3 °F 46.4 °F 30.25 in East 1.0 mph 2.0 mph 90 % 0.00 in
05:15 49.5 °F 46.6 °F 30.25 in Calm   2.0 mph 90 % 0.00 in
05:20 49.5 °F 46.6 °F 30.26 in ESE 1.0 mph 2.0 mph 90 % 0.00 in
05:25 49.6 °F 46.8 °F 30.25 in Calm   2.0 mph 90 % 0.00 in
05:30 49.6 °F 46.8 °F 30.25 in Calm   2.0 mph 90 % 0.00 in
05:35 49.6 °F 46.8 °F 30.26 in Calm   2.0 mph 90 % 0.00 in
05:40 49.8 °F 46.9 °F 30.26 in Calm   2.0 mph 90 % 0.00 in
05:45 49.8 °F 46.9 °F 30.26 in Calm   4.0 mph 90 % 0.00 in
05:50 50.0 °F 47.1 °F 30.26 in Calm   4.0 mph 90 % 0.00 in
05:55 50.2 °F 47.1 °F 30.26 in Calm   4.0 mph 89 % 0.00 in
06:00 50.2 °F 47.1 °F 30.26 in East 1.0 mph 3.0 mph 89 % 0.00 in
06:05 50.4 °F 47.3 °F 30.25 in East 1.0 mph 3.0 mph 89 % 0.00 in
06:10 50.4 °F 47.3 °F 30.25 in SSE 2.0 mph 3.0 mph 89 % 0.00 in
06:11 50.4 °F 47.3 °F 30.25 in SE 1.0 mph 4.0 mph 89 % 0.00 in
06:16 50.4 °F 47.3 °F 30.26 in Calm   4.0 mph 89 % 0.00 in
06:21 50.4 °F 46.9 °F 30.26 in East 3.0 mph 4.0 mph 88 % 0.00 in
06:26 50.5 °F 47.1 °F 30.26 in ESE 1.0 mph 4.0 mph 88 % 0.00 in
06:31 50.5 °F 47.1 °F 30.26 in Calm   3.0 mph 88 % 0.00 in
06:36 50.5 °F 46.8 °F 30.27 in Calm   3.0 mph 87 % 0.00 in
06:41 50.5 °F 46.8 °F 30.26 in ESE 1.0 mph 3.0 mph 87 % 0.00 in
06:46 50.5 °F 46.8 °F 30.27 in Calm   2.0 mph 87 % 0.00 in
06:51 50.7 °F 46.8 °F 30.27 in Calm   3.0 mph 86 % 0.00 in
06:56 50.7 °F 46.8 °F 30.26 in Calm   3.0 mph 86 % 0.00 in
07:01 50.7 °F 46.8 °F 30.26 in East 1.0 mph 3.0 mph 86 % 0.00 in
07:06 50.9 °F 46.9 °F 30.26 in East 3.0 mph 3.0 mph 86 % 0.00 in
07:11 51.1 °F 46.8 °F 30.26 in East 1.0 mph 5.0 mph 85 % 0.00 in
07:16 51.1 °F 46.8 °F 30.26 in Calm   5.0 mph 85 % 0.00 in
07:21 51.1 °F 46.4 °F 30.26 in East 1.0 mph 5.0 mph 84 % 0.00 in
07:26 51.3 °F 46.6 °F 30.27 in Calm   5.0 mph 84 % 0.00 in
07:31 51.3 °F 46.6 °F 30.27 in Calm   5.0 mph 84 % 0.00 in
07:36 51.4 °F 46.8 °F 30.27 in ESE 1.0 mph 5.0 mph 84 % 0.00 in
07:41 51.4 °F 46.8 °F 30.27 in ESE 1.0 mph 4.0 mph 84 % 0.00 in
07:46 51.6 °F 46.9 °F 30.27 in SE 1.0 mph 4.0 mph 84 % 0.00 in
07:51 51.8 °F 47.1 °F 30.27 in Calm   4.0 mph 84 % 0.00 in
07:56 52.0 °F 46.9 °F 30.27 in Calm   3.0 mph 83 % 0.00 in
08:01 52.2 °F 47.1 °F 30.27 in ENE 1.0 mph 3.0 mph 83 % 0.00 in
08:06 52.3 °F 47.3 °F 30.27 in Calm   4.0 mph 83 % 0.00 in
08:11 52.3 °F 47.3 °F 30.28 in ESE 1.0 mph 4.0 mph 83 % 0.00 in
08:16 52.5 °F 47.5 °F 30.28 in ESE 2.0 mph 4.0 mph 83 % 0.00 in
08:21 52.9 °F 47.8 °F 30.28 in Calm   4.0 mph 83 % 0.00 in
08:26 53.1 °F 48.0 °F 30.28 in SE 2.0 mph 6.0 mph 83 % 0.00 in
08:31 53.4 °F 48.4 °F 30.28 in Calm   6.0 mph 83 % 0.00 in
08:36 54.0 °F 48.9 °F 30.28 in East 2.0 mph 6.0 mph 83 % 0.00 in
08:41 54.3 °F 49.3 °F 30.28 in SE 1.0 mph 8.0 mph 83 % 0.00 in
08:46 54.5 °F 49.1 °F 30.28 in SSE 2.0 mph 8.0 mph 82 % 0.00 in
08:51 54.9 °F 49.8 °F 30.28 in South 2.0 mph 8.0 mph 83 % 0.00 in
08:56 55.0 °F 49.6 °F 30.28 in SE 2.0 mph 8.0 mph 82 % 0.00 in
09:01 55.2 °F 49.8 °F 30.28 in East 3.0 mph 8.0 mph 82 % 0.00 in
09:06 55.6 °F 50.2 °F 30.28 in SE 3.0 mph 7.0 mph 82 % 0.00 in
09:11 55.8 °F 50.4 °F 30.28 in Calm   8.0 mph 82 % 0.00 in
09:16 55.9 °F 50.5 °F 30.28 in SE 1.0 mph 8.0 mph 82 % 0.00 in
09:21 56.3 °F 50.9 °F 30.28 in SSE 3.0 mph 8.0 mph 82 % 0.00 in
09:26 56.5 °F 51.1 °F 30.28 in SE 2.0 mph 8.0 mph 82 % 0.00 in
09:31 56.8 °F 51.8 °F 30.29 in SE 6.0 mph 8.0 mph 83 % 0.00 in
09:36 57.2 °F 51.8 °F 30.29 in ESE 2.0 mph 8.0 mph 82 % 0.00 in
09:41 57.6 °F 52.2 °F 30.29 in SSE 3.0 mph 7.0 mph 82 % 0.00 in
09:46 57.9 °F 52.5 °F 30.29 in SSE 4.0 mph 6.0 mph 82 % 0.00 in
09:51 58.3 °F 52.9 °F 30.29 in South 6.0 mph 9.0 mph 82 % 0.00 in
09:56 58.5 °F 53.1 °F 30.29 in ESE 2.0 mph 10.0 mph 82 % 0.00 in
10:01 59.0 °F 53.2 °F 30.29 in SSE 1.0 mph 10.0 mph 81 % 0.00 in
10:06 59.4 °F 53.6 °F 30.29 in ESE 2.0 mph 10.0 mph 81 % 0.00 in
10:11 59.7 °F 53.6 °F 30.29 in ESE 5.0 mph 7.0 mph 80 % 0.00 in
10:16 60.3 °F 54.3 °F 30.29 in SSE 3.0 mph 7.0 mph 81 % 0.00 in
10:21 61.0 °F 55.0 °F 30.29 in SE 4.0 mph 8.0 mph 81 % 0.00 in
10:26 61.0 °F 54.7 °F 30.29 in East 4.0 mph 9.0 mph 80 % 0.00 in
10:31 61.2 °F 54.9 °F 30.29 in ESE 7.0 mph 9.0 mph 80 % 0.00 in
10:36 61.5 °F 54.9 °F 30.29 in South 4.0 mph 9.0 mph 79 % 0.00 in
10:41 62.1 °F 55.8 °F 30.28 in SSE 4.0 mph 8.0 mph 80 % 0.00 in
10:46 62.8 °F 56.1 °F 30.28 in ESE 4.0 mph 8.0 mph 79 % 0.00 in
10:51 63.5 °F 56.5 °F 30.28 in ESE 4.0 mph 7.0 mph 78 % 0.00 in
10:56 64.0 °F 56.7 °F 30.28 in SSW 5.0 mph 10.0 mph 77 % 0.00 in
11:01 64.2 °F 56.8 °F 30.28 in ENE 3.0 mph 10.0 mph 77 % 0.00 in
11:06 64.6 °F 57.6 °F 30.27 in ESE 7.0 mph 10.0 mph 78 % 0.00 in
11:11 64.9 °F 57.9 °F 30.27 in SSW 4.0 mph 12.0 mph 78 % 0.00 in
11:16 65.1 °F 58.1 °F 30.27 in SE 4.0 mph 12.0 mph 78 % 0.00 in
11:21 64.9 °F 57.9 °F 30.27 in ESE 6.0 mph 12.0 mph 78 % 0.00 in
11:26 64.8 °F 58.1 °F 30.27 in East 5.0 mph 12.0 mph 79 % 0.00 in
11:31 64.9 °F 58.3 °F 30.27 in SSE 4.0 mph 12.0 mph 79 % 0.00 in
11:36 65.1 °F 58.5 °F 30.26 in South 5.0 mph 12.0 mph 79 % 0.00 in
11:41 65.1 °F 58.5 °F 30.26 in SE 6.0 mph 10.0 mph 79 % 0.00 in
11:46 65.7 °F 59.0 °F 30.26 in SE 5.0 mph 10.0 mph 79 % 0.00 in
11:51 66.0 °F 59.4 °F 30.25 in ESE 2.0 mph 10.0 mph 79 % 0.00 in
11:56 66.6 °F 59.2 °F 30.25 in South 5.0 mph 8.0 mph 77 % 0.00 in
12:01 66.9 °F 59.9 °F 30.25 in SE 3.0 mph 9.0 mph 78 % 0.00 in
12:06 67.8 °F 59.9 °F 30.24 in SE 8.0 mph 13.0 mph 76 % 0.00 in
12:11 68.4 °F 60.1 °F 30.24 in SSE 8.0 mph 13.0 mph 75 % 0.00 in
12:16 68.9 °F 60.6 °F 30.23 in SSE 8.0 mph 13.0 mph 75 % 0.00 in
12:21 69.3 °F 60.6 °F 30.23 in South 4.0 mph 13.0 mph 74 % 0.00 in
12:26 69.1 °F 60.1 °F 30.23 in SE 8.0 mph 12.0 mph 73 % 0.00 in
12:31 68.4 °F 59.7 °F 30.22 in South 6.0 mph 12.0 mph 74 % 0.00 in
12:36 68.0 °F 59.7 °F 30.22 in East 3.0 mph 12.0 mph 75 % 0.00 in
12:41 67.6 °F 59.7 °F 30.22 in SE 6.0 mph 12.0 mph 76 % 0.00 in
12:46 67.6 °F 60.3 °F 30.22 in SSE 6.0 mph 11.0 mph 77 % 0.00 in
12:51 67.8 °F 60.3 °F 30.22 in SSE 8.0 mph 11.0 mph 77 % 0.00 in
12:56 67.6 °F 60.3 °F 30.22 in SSE 5.0 mph 10.0 mph 77 % 0.00 in
13:01 67.5 °F 60.1 °F 30.21 in SSE 6.0 mph 10.0 mph 77 % 0.00 in
13:06 67.5 °F 60.1 °F 30.21 in SE 4.0 mph 10.0 mph 77 % 0.00 in
13:11 67.5 °F 60.1 °F 30.20 in SSE 4.0 mph 13.0 mph 77 % 0.00 in
13:16 67.6 °F 61.0 °F 30.20 in SE 5.0 mph 13.0 mph 79 % 0.00 in
13:21 68.2 °F 60.6 °F 30.20 in SSE 6.0 mph 13.0 mph 77 % 0.00 in
13:22 68.4 °F 60.8 °F 30.20 in SE 8.0 mph 13.0 mph 77 % 0.00 in
13:27 68.4 °F 60.4 °F 30.19 in SE 5.0 mph 11.0 mph 76 % 0.00 in
13:32 68.2 °F 60.3 °F 30.19 in ESE 6.0 mph 10.0 mph 76 % 0.00 in
13:37 67.8 °F 60.3 °F 30.19 in SSW 4.0 mph 12.0 mph 77 % 0.00 in
13:42 67.8 °F 60.3 °F 30.19 in SSE 12.0 mph 13.0 mph 77 % 0.00 in
13:47 67.8 °F 60.6 °F 30.19 in SSE 4.0 mph 13.0 mph 78 % 0.00 in
13:52 68.0 °F 60.8 °F 30.19 in SSW 6.0 mph 13.0 mph 78 % 0.00 in
13:57 68.2 °F 60.6 °F 30.19 in SE 5.0 mph 12.0 mph 77 % 0.00 in
14:02 68.2 °F 60.6 °F 30.19 in SE 6.0 mph 13.0 mph 77 % 0.00 in
14:07 68.0 °F 60.4 °F 30.19 in SSE 10.0 mph 13.0 mph 77 % 0.00 in
14:12 67.8 °F 60.3 °F 30.19 in SW 7.0 mph 13.0 mph 77 % 0.00 in
14:17 67.8 °F 60.3 °F 30.19 in ESE 4.0 mph 13.0 mph 77 % 0.00 in
14:22 67.8 °F 60.6 °F 30.18 in South 5.0 mph 13.0 mph 78 % 0.00 in
14:27 67.8 °F 60.6 °F 30.18 in SSE 6.0 mph 13.0 mph 78 % 0.00 in
14:32 67.8 °F 60.6 °F 30.18 in ESE 5.0 mph 14.0 mph 78 % 0.00 in
14:37 67.8 °F 60.6 °F 30.18 in SSE 3.0 mph 14.0 mph 78 % 0.00 in
14:42 68.0 °F 60.8 °F 30.18 in ESE 7.0 mph 14.0 mph 78 % 0.00 in
14:47 67.8 °F 60.6 °F 30.18 in SE 6.0 mph 11.0 mph 78 % 0.00 in
14:52 67.8 °F 60.6 °F 30.18 in Calm   12.0 mph 78 % 0.00 in
14:57 67.8 °F 60.6 °F 30.17 in East 6.0 mph 12.0 mph 78 % 0.00 in
15:02 67.6 °F 60.6 °F 30.17 in South 5.0 mph 12.0 mph 78 % 0.00 in
15:07 67.6 °F 60.6 °F 30.17 in SSE 11.0 mph 11.0 mph 78 % 0.00 in
15:12 67.6 °F 61.0 °F 30.17 in SE 3.0 mph 11.0 mph 79 % 0.00 in
15:17 67.5 °F 60.8 °F 30.17 in ESE 7.0 mph 11.0 mph 79 % 0.00 in
15:22 67.5 °F 60.8 °F 30.17 in SSE 6.0 mph 14.0 mph 79 % 0.00 in
15:28 67.3 °F 60.6 °F 30.17 in SE 4.0 mph 14.0 mph 79 % 0.00 in
15:33 67.3 °F 60.6 °F 30.17 in SE 3.0 mph 14.0 mph 79 % 0.00 in
15:38 67.3 °F 60.6 °F 30.17 in SE 8.0 mph 12.0 mph 79 % 0.00 in
15:43 67.3 °F 60.6 °F 30.17 in ESE 5.0 mph 11.0 mph 79 % 0.00 in
15:48 67.5 °F 60.8 °F 30.17 in SSW 4.0 mph 10.0 mph 79 % 0.00 in
15:53 67.3 °F 60.6 °F 30.17 in SSE 3.0 mph 10.0 mph 79 % 0.00 in
15:58 67.5 °F 60.8 °F 30.17 in SE 4.0 mph 10.0 mph 79 % 0.00 in
16:03 67.5 °F 60.8 °F 30.17 in SE 3.0 mph 10.0 mph 79 % 0.00 in
16:08 67.5 °F 60.8 °F 30.16 in ENE 4.0 mph 10.0 mph 79 % 0.00 in
16:13 67.5 °F 60.8 °F 30.16 in SE 2.0 mph 8.0 mph 79 % 0.00 in
16:18 67.6 °F 61.0 °F 30.16 in East 2.0 mph 8.0 mph 79 % 0.00 in
16:23 67.6 °F 61.0 °F 30.16 in SSE 4.0 mph 8.0 mph 79 % 0.00 in
16:28 67.5 °F 60.8 °F 30.16 in SSE 3.0 mph 9.0 mph 79 % 0.00 in
16:33 67.6 °F 61.0 °F 30.16 in ESE 4.0 mph 9.0 mph 79 % 0.00 in
16:38 67.5 °F 61.2 °F 30.16 in ESE 1.0 mph 9.0 mph 80 % 0.00 in
16:43 67.5 °F 61.2 °F 30.16 in SE 5.0 mph 8.0 mph 80 % 0.00 in
16:48 67.5 °F 61.2 °F 30.16 in SE 5.0 mph 8.0 mph 80 % 0.00 in
16:53 67.3 °F 61.0 °F 30.16 in South 4.0 mph 8.0 mph 80 % 0.00 in
16:58 67.3 °F 61.2 °F 30.16 in SSE 5.0 mph 9.0 mph 81 % 0.00 in
17:03 66.9 °F 61.0 °F 30.16 in ESE 4.0 mph 10.0 mph 81 % 0.00 in
17:08 66.9 °F 61.2 °F 30.16 in ESE 5.0 mph 10.0 mph 82 % 0.00 in
17:13 66.7 °F 61.0 °F 30.16 in SSE 3.0 mph 10.0 mph 82 % 0.00 in
17:18 66.7 °F 61.0 °F 30.16 in South 1.0 mph 8.0 mph 82 % 0.00 in
17:23 66.6 °F 61.0 °F 30.16 in SE 3.0 mph 6.0 mph 82 % 0.00 in
17:28 66.6 °F 61.0 °F 30.16 in East 4.0 mph 7.0 mph 82 % 0.00 in
17:33 66.4 °F 61.0 °F 30.16 in East 4.0 mph 7.0 mph 83 % 0.00 in
17:38 66.2 °F 60.8 °F 30.16 in East 2.0 mph 7.0 mph 83 % 0.00 in
17:43 66.0 °F 60.6 °F 30.16 in SE 2.0 mph 7.0 mph 83 % 0.00 in
17:48 65.8 °F 60.8 °F 30.16 in ESE 3.0 mph 7.0 mph 84 % 0.00 in
17:53 65.8 °F 60.8 °F 30.16 in ESE 2.0 mph 8.0 mph 84 % 0.00 in
17:58 65.7 °F 60.6 °F 30.16 in SW 1.0 mph 8.0 mph 84 % 0.00 in
18:03 65.7 °F 61.0 °F 30.16 in SE 1.0 mph 8.0 mph 85 % 0.00 in
18:08 65.5 °F 60.8 °F 30.16 in ENE 1.0 mph 7.0 mph 85 % 0.00 in
18:13 65.1 °F 60.4 °F 30.16 in SE 3.0 mph 8.0 mph 85 % 0.00 in
18:18 64.9 °F 60.6 °F 30.16 in ESE 6.0 mph 9.0 mph 86 % 0.00 in
18:23 64.8 °F 60.4 °F 30.16 in SE 4.0 mph 10.0 mph 86 % 0.00 in
18:28 64.6 °F 60.6 °F 30.16 in ESE 5.0 mph 13.0 mph 87 % 0.00 in
18:33 64.4 °F 60.4 °F 30.16 in SE 3.0 mph 13.0 mph 87 % 0.00 in
18:38 64.2 °F 60.6 °F 30.16 in East 2.0 mph 13.0 mph 88 % 0.00 in
18:43 64.0 °F 60.4 °F 30.17 in SSE 4.0 mph 7.0 mph 88 % 0.00 in
18:48 63.9 °F 60.3 °F 30.17 in SE 4.0 mph 6.0 mph 88 % 0.00 in
18:53 63.7 °F 60.4 °F 30.17 in SE 5.0 mph 7.0 mph 89 % 0.00 in
18:58 63.7 °F 60.4 °F 30.17 in ESE 5.0 mph 8.0 mph 89 % 0.00 in
19:03 63.7 °F 60.4 °F 30.17 in ESE 4.0 mph 8.0 mph 89 % 0.00 in
19:08 63.7 °F 60.4 °F 30.17 in ESE 4.0 mph 9.0 mph 89 % 0.00 in
19:13 63.7 °F 60.4 °F 30.17 in Calm   9.0 mph 89 % 0.00 in
19:18 63.5 °F 60.3 °F 30.17 in ESE 3.0 mph 9.0 mph 89 % 0.00 in
19:23 63.5 °F 60.4 °F 30.18 in East 5.0 mph 7.0 mph 90 % 0.00 in
19:28 63.5 °F 60.4 °F 30.17 in SE 3.0 mph 7.0 mph 90 % 0.00 in
19:33 63.5 °F 60.4 °F 30.17 in East 4.0 mph 7.0 mph 90 % 0.00 in
19:38 63.3 °F 60.3 °F 30.17 in SSW 2.0 mph 7.0 mph 90 % 0.00 in
19:43 63.3 °F 60.3 °F 30.19 in SE 1.0 mph 6.0 mph 90 % 0.00 in
19:48 63.3 °F 60.3 °F 30.19 in Calm   6.0 mph 90 % 0.00 in
19:53 63.1 °F 60.1 °F 30.19 in ESE 2.0 mph 5.0 mph 90 % 0.00 in
19:58 63.1 °F 60.1 °F 30.18 in Calm   4.0 mph 90 % 0.00 in
20:03 63.1 °F 60.1 °F 30.18 in SE 2.0 mph 4.0 mph 90 % 0.00 in
20:08 63.0 °F 60.3 °F 30.18 in East 5.0 mph 5.0 mph 91 % 0.00 in
20:13 63.0 °F 60.3 °F 30.18 in ESE 2.0 mph 6.0 mph 91 % 0.00 in
20:18 62.8 °F 60.1 °F 30.18 in ESE 2.0 mph 6.0 mph 91 % 0.00 in
20:23 62.6 °F 60.3 °F 30.18 in SE 2.0 mph 6.0 mph 92 % 0.00 in
20:28 62.4 °F 60.1 °F 30.18 in Calm   5.0 mph 92 % 0.00 in
20:33 62.4 °F 60.1 °F 30.19 in ESE 3.0 mph 5.0 mph 92 % 0.00 in
20:38 62.2 °F 59.9 °F 30.19 in East 3.0 mph 5.0 mph 92 % 0.00 in
20:43 62.2 °F 59.9 °F 30.19 in SE 1.0 mph 6.0 mph 92 % 0.00 in
20:48 62.2 °F 59.9 °F 30.18 in SE 1.0 mph 6.0 mph 92 % 0.00 in
20:53 62.1 °F 59.7 °F 30.19 in SE 3.0 mph 6.0 mph 92 % 0.00 in
20:58 62.1 °F 59.7 °F 30.18 in SE 1.0 mph 5.0 mph 92 % 0.00 in
21:04 62.1 °F 59.7 °F 30.18 in ESE 3.0 mph 5.0 mph 92 % 0.00 in
21:09 62.1 °F 59.7 °F 30.18 in Calm   5.0 mph 92 % 0.00 in
21:14 61.9 °F 59.9 °F 30.19 in ESE 1.0 mph 5.0 mph 93 % 0.00 in
21:19 61.9 °F 59.9 °F 30.18 in East 1.0 mph 4.0 mph 93 % 0.00 in
21:24 61.7 °F 59.7 °F 30.19 in ESE 1.0 mph 4.0 mph 93 % 0.00 in
21:29 61.5 °F 59.5 °F 30.18 in East 2.0 mph 3.0 mph 93 % 0.00 in
21:34 61.5 °F 59.5 °F 30.19 in Calm   3.0 mph 93 % 0.00 in
21:39 61.3 °F 59.4 °F 30.19 in ESE 2.0 mph 4.0 mph 93 % 0.00 in
21:43 61.3 °F 59.4 °F 30.19 in SE 2.0 mph 4.0 mph 93 % 0.00 in
21:48 61.3 °F 59.4 °F 30.19 in ESE 1.0 mph 4.0 mph 93 % 0.00 in
21:54 61.2 °F 59.2 °F 30.18 in ESE 1.0 mph 4.0 mph 93 % 0.00 in
21:59 61.2 °F 59.2 °F 30.18 in ESE 1.0 mph 4.0 mph 93 % 0.00 in
22:04 61.0 °F 59.0 °F 30.18 in Calm   4.0 mph 93 % 0.00 in
22:09 61.0 °F 59.2 °F 30.18 in ESE 1.0 mph 5.0 mph 94 % 0.00 in
22:14 61.0 °F 59.2 °F 30.19 in East 2.0 mph 5.0 mph 94 % 0.00 in
22:19 61.0 °F 59.2 °F 30.18 in Calm   5.0 mph 94 % 0.00 in
22:24 61.0 °F 59.2 °F 30.18 in SE 2.0 mph 4.0 mph 94 % 0.00 in
22:29 60.8 °F 59.0 °F 30.18 in ESE 1.0 mph 4.0 mph 94 % 0.00 in
22:34 60.8 °F 59.0 °F 30.18 in SE 1.0 mph 6.0 mph 94 % 0.00 in
22:39 60.8 °F 59.0 °F 30.17 in East 2.0 mph 6.0 mph 94 % 0.00 in
22:44 60.8 °F 59.0 °F 30.18 in ESE 1.0 mph 6.0 mph 94 % 0.00 in
22:49 60.6 °F 58.8 °F 30.18 in ESE 1.0 mph 7.0 mph 94 % 0.00 in
22:54 60.6 °F 58.8 °F 30.18 in SSE 1.0 mph 7.0 mph 94 % 0.00 in
22:59 60.6 °F 59.2 °F 30.18 in Calm   7.0 mph 95 % 0.00 in
23:04 60.6 °F 59.2 °F 30.17 in ESE 1.0 mph 5.0 mph 95 % 0.00 in
23:09 60.6 °F 59.2 °F 30.17 in ESE 1.0 mph 4.0 mph 95 % 0.00 in
23:14 60.6 °F 59.2 °F 30.17 in Calm   4.0 mph 95 % 0.00 in
23:19 60.4 °F 59.0 °F 30.17 in ESE 1.0 mph 4.0 mph 95 % 0.00 in
23:24 60.4 °F 59.0 °F 30.17 in Calm   4.0 mph 95 % 0.00 in
23:29 60.4 °F 59.0 °F 30.17 in Calm   3.0 mph 95 % 0.00 in
23:34 60.4 °F 59.0 °F 30.18 in SSE 2.0 mph 3.0 mph 95 % 0.00 in
23:39 60.4 °F 59.0 °F 30.18 in ESE 1.0 mph 5.0 mph 95 % 0.00 in
23:44 60.4 °F 59.0 °F 30.18 in SE 1.0 mph 5.0 mph 95 % 0.00 in
23:49 60.4 °F 59.0 °F 30.17 in Calm   5.0 mph 95 % 0.00 in
23:54 60.3 °F 58.8 °F 30.17 in Calm   4.0 mph 95 % 0.00 in
23:59 60.3 °F 58.8 °F 30.17 in ESE 3.0 mph 4.0 mph 95 % 0.00 in
Spring, Texas: Villages of Bridgestone
Compliments of Weather Underground - 3 mb

Script developed by  Jim McMurry - jmcmurry@mwt.net Adapted for the template by  Wim van der Kuil - Leuven-Template.eu

You find our weather info also at:

UK Metoffice

WeatherCloud

Weather Underground

Mid-South Weather Network

AWEKAS

Citizen Weather Observer Program (CWOP)

HAMweather, WeatherForYou, PWS Weather

Equipment we use:

Weather-station
Davis Vantage Vue

Weather-program
Meteohub

Weather-server
Debian 7.9 x86 (Guest)

Provider
DreamHost

Davis Vantage Vue

Meteohub

Debian 7.9 x86 (Guest)

DreamHost